createdAt,value
2022-09-01T00:00:33.005Z,53.70
2022-09-01T00:05:35.033Z,53.94
2022-09-01T00:10:36.660Z,54.08
2022-09-01T00:15:38.532Z,53.92
2022-09-01T00:20:40.297Z,54.02
2022-09-01T00:25:41.999Z,53.98
2022-09-01T00:30:43.683Z,53.79
2022-09-01T00:35:45.876Z,53.82
2022-09-01T00:40:47.765Z,53.78
2022-09-01T00:45:51.895Z,53.95
2022-09-01T00:50:54.533Z,53.97
2022-09-01T00:55:56.765Z,54.03
2022-09-01T01:00:59.334Z,53.93
2022-09-01T01:06:05.122Z,54.07
2022-09-01T01:11:18.002Z,54.00
2022-09-01T01:16:19.830Z,53.90
2022-09-01T01:21:56.571Z,53.93
2022-09-01T01:27:00.126Z,54.25
2022-09-01T01:32:02.674Z,54.13
2022-09-01T01:37:05.075Z,54.30
2022-09-01T01:42:09.451Z,53.90
2022-09-01T01:47:13.443Z,53.99
2022-09-01T01:52:17.370Z,54.30
2022-09-01T01:57:20.222Z,54.06
2022-09-01T02:02:22.264Z,54.22
2022-09-01T02:07:24.202Z,54.30
2022-09-01T02:12:25.933Z,54.09
2022-09-01T02:17:28.143Z,54.27
2022-09-01T02:22:29.916Z,54.19
2022-09-01T02:27:34.104Z,54.14
2022-09-01T02:32:35.929Z,54.11
2022-09-01T02:37:39.488Z,54.32
2022-09-01T02:42:43.712Z,54.13
2022-09-01T02:47:46.866Z,54.23
2022-09-01T02:52:50.192Z,54.21
2022-09-01T02:57:57.080Z,54.25
2022-09-01T03:03:02.363Z,54.29
2022-09-01T03:08:07.489Z,54.28
2022-09-01T03:13:11.379Z,54.34
2022-09-01T03:18:14.651Z,54.27
2022-09-01T03:23:19.511Z,54.55
2022-09-01T03:28:22.737Z,54.42
2022-09-01T03:33:26.881Z,54.44
2022-09-01T03:38:32.125Z,54.45
2022-09-01T03:43:36.198Z,54.32
2022-09-01T03:48:39.751Z,54.30
2022-09-01T03:53:42.186Z,54.56
2022-09-01T03:58:47.454Z,54.54
2022-09-01T04:03:53.277Z,54.49
2022-09-01T04:09:03.072Z,54.39
2022-09-01T04:14:07.058Z,54.43
2022-09-01T04:19:21.145Z,54.58
2022-09-01T04:24:28.431Z,54.74
2022-09-01T04:29:32.796Z,54.50
2022-09-01T04:34:38.599Z,54.73
2022-09-01T04:39:52.589Z,54.53
2022-09-01T04:44:57.895Z,54.67
2022-09-01T04:50:00.659Z,54.35
2022-09-01T04:55:03.517Z,54.53
2022-09-01T05:00:22.142Z,54.65
2022-09-01T05:05:24.011Z,54.45
2022-09-01T05:10:30.019Z,54.28
2022-09-01T05:16:06.557Z,54.29
2022-09-01T05:21:09.982Z,54.53
2022-09-01T05:26:18.219Z,54.15
2022-09-01T05:31:21.662Z,54.44
2022-09-01T05:36:24.259Z,54.32
2022-09-01T05:41:28.605Z,54.32
2022-09-01T05:46:31.034Z,54.48
2022-09-01T05:51:45.762Z,54.41
2022-09-01T05:56:49.866Z,54.67
2022-09-01T06:01:56.449Z,54.45
2022-09-01T06:07:06.933Z,54.27
2022-09-01T06:12:18.535Z,54.10
2022-09-01T06:17:25.526Z,54.29
2022-09-01T06:22:29.185Z,54.34
2022-09-01T06:27:34.491Z,54.46
2022-09-01T06:32:38.671Z,54.22
2022-09-01T06:37:43.341Z,54.14
2022-09-01T06:42:51.034Z,54.28
2022-09-01T06:47:57.637Z,53.95
2022-09-01T06:58:26.022Z,53.86
2022-09-01T07:03:28.213Z,54.12
2022-09-01T07:14:16.117Z,54.10
2022-09-01T07:19:18.333Z,53.94
2022-09-01T07:24:40.280Z,54.05
2022-09-01T07:30:09.627Z,53.79
2022-09-01T07:35:18.435Z,54.14
2022-09-01T07:51:39.910Z,54.01
2022-09-01T07:56:42.297Z,53.90
2022-09-01T08:01:47.717Z,53.92
2022-09-01T08:06:49.985Z,54.09
2022-09-01T08:12:01.630Z,54.05
2022-09-01T08:22:28.070Z,53.76
2022-09-01T08:27:38.982Z,53.99
2022-09-01T08:32:42.264Z,54.01
2022-09-01T08:37:45.333Z,54.00
2022-09-01T08:43:04.456Z,54.20
2022-09-01T08:53:55.473Z,53.67
2022-09-01T09:04:33.389Z,53.77
2022-09-01T09:09:53.060Z,53.59
2022-09-01T09:15:26.839Z,53.36
2022-09-01T09:20:28.982Z,52.63
2022-09-01T09:25:31.520Z,52.68
2022-09-01T09:30:33.508Z,52.36
2022-09-01T09:35:36.749Z,52.20
2022-09-01T09:41:00.007Z,51.98
2022-09-01T09:46:25.514Z,51.82
2022-09-01T09:51:28.876Z,51.29
2022-09-01T09:56:31.446Z,51.23
2022-09-01T10:01:35.379Z,50.97
2022-09-01T10:06:41.904Z,50.41
2022-09-01T10:11:49.129Z,50.53
2022-09-01T10:17:00.589Z,49.83
2022-09-01T10:22:03.542Z,48.87
2022-09-01T10:27:41.270Z,48.77
2022-09-01T10:33:02.324Z,48.15
2022-09-01T10:38:17.449Z,47.66
2022-09-01T10:43:42.188Z,47.62
2022-09-01T10:48:55.424Z,47.35
2022-09-01T10:54:02.275Z,47.06
2022-09-01T10:59:31.495Z,46.91
2022-09-01T11:04:37.384Z,46.94
2022-09-01T11:09:45.112Z,46.74
2022-09-01T11:14:55.890Z,46.41
2022-09-01T11:20:06.572Z,46.16
2022-09-01T11:25:39.256Z,46.35
2022-09-01T11:30:55.571Z,45.56
2022-09-01T11:36:01.630Z,45.38
2022-09-01T11:41:05.582Z,45.16
2022-09-01T11:46:23.665Z,44.61
2022-09-01T11:51:25.605Z,44.35
2022-09-01T11:56:29.499Z,43.98
2022-09-01T12:01:36.815Z,43.94
2022-09-01T12:06:38.518Z,43.63
2022-09-01T12:11:42.781Z,42.99
2022-09-01T12:16:57.119Z,42.30
2022-09-01T12:22:07.697Z,41.91
2022-09-01T12:27:10.692Z,41.42
2022-09-01T12:32:14.352Z,40.70
2022-09-01T12:37:16.832Z,40.25
2022-09-01T12:42:19.456Z,39.93
2022-09-01T12:47:51.263Z,39.94
2022-09-01T12:52:58.510Z,39.43
2022-09-01T12:58:03.427Z,39.59
2022-09-01T13:03:14.336Z,40.04
2022-09-01T13:08:22.648Z,39.72
2022-09-01T13:13:26.659Z,39.24
2022-09-01T13:18:30.375Z,38.91
2022-09-01T13:23:32.279Z,39.01
2022-09-01T13:28:36.432Z,39.27
2022-09-01T13:39:02.571Z,39.08
2022-09-01T13:44:06.141Z,38.40
2022-09-01T13:54:29.616Z,37.82
2022-09-01T13:59:33.015Z,37.88
2022-09-01T14:04:34.854Z,37.66
2022-09-01T14:09:37.383Z,37.46
2022-09-01T14:20:00.900Z,37.95
2022-09-01T14:25:02.749Z,37.72
2022-09-01T14:30:09.821Z,37.90
2022-09-01T14:35:12.405Z,37.04
2022-09-01T14:40:16.793Z,36.99
2022-09-01T14:45:21.579Z,36.40
2022-09-01T14:50:25.108Z,37.09
2022-09-01T14:55:28.847Z,36.56
2022-09-01T15:00:31.804Z,36.11
2022-09-01T15:05:39.772Z,35.77
2022-09-01T15:10:41.826Z,35.77
2022-09-01T15:15:43.579Z,35.38
2022-09-01T15:20:45.341Z,35.79
2022-09-01T15:25:48.887Z,35.21
2022-09-01T15:30:54.402Z,35.37
2022-09-01T15:35:56.185Z,35.67
2022-09-01T15:40:58.935Z,35.67
2022-09-01T15:46:04.522Z,36.12
2022-09-01T15:51:38.781Z,35.68
2022-09-01T15:56:40.846Z,35.82
2022-09-01T16:01:45.083Z,35.68
2022-09-01T16:06:47.332Z,36.15
2022-09-01T16:11:54.549Z,36.22
2022-09-01T16:17:05.561Z,36.31
2022-09-01T16:22:26.004Z,36.55
2022-09-01T16:27:33.339Z,36.48
2022-09-01T16:32:41.765Z,36.90
2022-09-01T16:38:23.073Z,36.80
2022-09-01T16:43:33.270Z,36.69
2022-09-01T16:48:52.222Z,36.93
2022-09-01T16:54:09.640Z,36.66
2022-09-01T16:59:37.477Z,36.95
2022-09-01T17:04:47.510Z,36.95
2022-09-01T17:10:02.613Z,37.01
2022-09-01T17:15:11.618Z,37.45
2022-09-01T17:20:14.087Z,37.42
2022-09-01T17:25:41.231Z,36.93
2022-09-01T17:31:06.053Z,37.31
2022-09-01T17:36:29.069Z,37.70
2022-09-01T17:42:03.648Z,37.80
2022-09-01T17:47:40.842Z,37.88
2022-09-01T17:53:02.274Z,38.19
2022-09-01T17:58:29.012Z,38.45
2022-09-01T18:03:59.105Z,39.15
2022-09-01T18:09:02.379Z,39.30
2022-09-01T18:14:15.179Z,39.29
2022-09-01T18:19:20.993Z,38.95
2022-09-01T18:24:32.416Z,38.39
2022-09-01T18:29:33.966Z,38.14
2022-09-01T18:35:26.354Z,37.90
2022-09-01T18:40:56.975Z,37.71
2022-09-01T18:46:15.703Z,37.47
2022-09-01T18:51:36.650Z,37.31
2022-09-01T18:56:42.759Z,36.96
2022-09-01T19:02:09.573Z,37.21
2022-09-01T19:07:38.864Z,37.01
2022-09-01T19:12:54.202Z,36.71
2022-09-01T19:18:12.552Z,36.73
2022-09-01T19:23:40.614Z,36.50
2022-09-01T19:28:50.450Z,36.44
2022-09-01T19:34:02.798Z,36.79
2022-09-01T19:39:08.400Z,37.04
2022-09-01T19:44:22.651Z,36.81
2022-09-01T19:49:37.313Z,36.95
2022-09-01T19:54:54.313Z,36.84
2022-09-01T20:00:11.167Z,37.11
2022-09-01T20:05:40.263Z,37.56
2022-09-01T20:11:07.649Z,37.51
2022-09-01T20:16:44.570Z,37.50
2022-09-01T20:21:47.883Z,37.88
2022-09-01T20:27:00.141Z,37.72
2022-09-01T20:32:03.983Z,37.71
2022-09-01T20:37:42.071Z,37.76
2022-09-01T20:43:18.445Z,37.71
2022-09-01T20:48:25.990Z,38.13
2022-09-01T20:54:04.881Z,37.79
2022-09-01T20:59:09.883Z,38.00
2022-09-01T21:04:36.302Z,38.19
2022-09-01T21:09:46.832Z,38.34
2022-09-01T21:15:00.624Z,38.37
2022-09-01T21:20:30.817Z,38.58
2022-09-01T21:25:32.433Z,38.57
2022-09-01T21:30:35.418Z,38.54
2022-09-01T21:35:36.973Z,38.62
2022-09-01T21:40:38.601Z,38.62
2022-09-01T21:45:40.299Z,38.68
2022-09-01T21:50:42.241Z,38.85
2022-09-01T21:55:44.734Z,38.73
2022-09-01T22:00:47.391Z,38.97
2022-09-01T22:05:48.990Z,39.20
2022-09-01T22:10:52.895Z,38.98
2022-09-01T22:15:54.497Z,38.78
2022-09-01T22:21:09.192Z,39.06
2022-09-01T22:26:19.787Z,39.12
2022-09-01T22:31:23.726Z,39.16
2022-09-01T22:36:28.644Z,39.15
2022-09-01T22:41:31.622Z,39.29
2022-09-01T22:46:34.968Z,39.34
2022-09-01T22:51:39.601Z,39.29
2022-09-01T22:56:42.082Z,39.62
2022-09-01T23:01:45.968Z,39.57
2022-09-01T23:06:51.580Z,39.63
2022-09-01T23:11:53.149Z,39.96
2022-09-01T23:16:55.196Z,39.96
2022-09-01T23:21:56.779Z,39.99
2022-09-01T23:26:58.414Z,40.17
2022-09-01T23:32:00.015Z,40.23
2022-09-01T23:37:01.712Z,40.53
2022-09-01T23:42:03.410Z,40.49
2022-09-01T23:47:05.188Z,40.54
2022-09-01T23:52:07.295Z,40.66
2022-09-01T23:57:09.048Z,40.91
